Time;durP1;ratioP1;P1;durP2;ratioP2;P2;SDS_P1;SDS_P2;PMS_P1;PMS_P2;Temp;Humidity;BMP_temperature;BMP_pressure;BME280_temperature;BME280_humidity;BME280_pressure;Samples;Min_cycle;Max_cycle;Signal;HPM_P1;HPM_P2
2023/01/16 00:00:47;;;;;;;10.00;4.03;;;;;;;2.92;100.00;99454.19;5048034;28;20048;-41
2023/01/16 00:03:12;;;;;;;9.80;3.67;;;;;;;2.91;100.00;99444.56;5031465;28;20111;-40
2023/01/16 00:05:38;;;;;;;10.65;3.35;;;;;;;2.91;100.00;99439.25;5031493;28;20021;-40
2023/01/16 00:08:03;;;;;;;6.63;3.30;;;;;;;2.89;100.00;99425.31;5039974;28;20025;-40
2023/01/16 00:10:28;;;;;;;7.53;3.38;;;;;;;2.90;100.00;99429.63;5027605;28;20025;-42
2023/01/16 00:12:54;;;;;;;8.23;3.13;;;;;;;2.90;100.00;99418.97;5041206;28;20029;-40
2023/01/16 00:15:19;;;;;;;4.07;2.70;;;;;;;2.86;100.00;99408.69;5037754;28;20033;-40
2023/01/16 00:17:45;;;;;;;8.93;2.88;;;;;;;2.86;100.00;99410.53;5036601;28;20021;-39
2023/01/16 00:20:10;;;;;;;9.45;3.92;;;;;;;2.82;100.00;99407.38;5049878;28;20033;-40
2023/01/16 00:22:35;;;;;;;10.25;2.90;;;;;;;2.81;100.00;99405.72;5051405;28;20384;-40
2023/01/16 00:25:01;;;;;;;10.13;2.92;;;;;;;2.86;100.00;99403.38;5032325;28;20080;-42
2023/01/16 00:27:26;;;;;;;10.90;2.75;;;;;;;2.90;100.00;99408.34;5047720;28;20036;-40
2023/01/16 00:29:51;;;;;;;7.68;2.53;;;;;;;2.94;100.00;99412.34;5037924;28;20538;-40
2023/01/16 00:32:17;;;;;;;9.18;2.63;;;;;;;2.97;100.00;99393.41;5030923;28;20454;-41
2023/01/16 00:34:42;;;;;;;6.13;2.08;;;;;;;2.98;100.00;99387.94;5035700;28;20049;-41
2023/01/16 00:37:07;;;;;;;5.95;2.22;;;;;;;3.00;100.00;99393.06;5037111;28;20033;-42
2023/01/16 00:39:33;;;;;;;13.52;4.00;;;;;;;3.01;100.00;99389.44;5038262;28;20033;-40
2023/01/16 00:41:58;;;;;;;8.20;2.05;;;;;;;3.04;100.00;99381.94;5030808;28;20036;-40
2023/01/16 00:44:24;;;;;;;6.93;2.65;;;;;;;3.06;100.00;99365.84;5044899;28;20171;-41
2023/01/16 00:46:49;;;;;;;9.23;2.90;;;;;;;3.04;100.00;99367.81;5047149;28;20468;-39
2023/01/16 00:49:14;;;;;;;9.55;2.88;;;;;;;3.02;100.00;99367.97;5034286;28;20057;-40
2023/01/16 00:51:40;;;;;;;9.52;2.60;;;;;;;3.00;100.00;99367.34;5047162;28;20031;-40
2023/01/16 00:54:05;;;;;;;11.68;2.63;;;;;;;2.98;100.00;99352.56;5040367;28;20116;-40
2023/01/16 00:56:30;;;;;;;12.60;3.78;;;;;;;2.96;100.00;99343.91;5032156;28;20040;-40
2023/01/16 00:58:56;;;;;;;17.92;3.75;;;;;;;2.98;100.00;99336.63;5040531;28;20137;-37
2023/01/16 01:01:21;;;;;;;10.02;3.58;;;;;;;2.91;100.00;99335.63;5030670;28;20500;-41
2023/01/16 01:03:46;;;;;;;16.92;3.90;;;;;;;2.94;100.00;99319.34;5036859;28;20457;-42
2023/01/16 01:06:12;;;;;;;18.13;4.25;;;;;;;2.91;100.00;99319.69;5034445;28;20045;-42
2023/01/16 01:08:37;;;;;;;12.63;4.30;;;;;;;2.91;100.00;99317.03;5047327;28;20033;-40
2023/01/16 01:11:10;;;;;;;19.42;5.60;;;;;;;2.90;100.00;99308.22;5038834;28;20120;-40
2023/01/16 01:13:37;;;;;;;16.40;4.30;;;;;;;2.93;100.00;99317.69;5037227;28;20203;-40
2023/01/16 01:16:02;;;;;;;18.20;5.47;;;;;;;2.99;100.00;99307.19;5031641;28;20029;-40
2023/01/16 01:18:27;;;;;;;20.50;5.25;;;;;;;3.00;100.00;99298.25;5036600;28;20037;-40
2023/01/16 01:20:53;;;;;;;13.80;6.13;;;;;;;3.03;100.00;99302.38;5035354;28;20041;-42
2023/01/16 01:23:18;;;;;;;20.10;5.00;;;;;;;3.04;100.00;99294.22;5038629;28;20028;-40
2023/01/16 01:25:43;;;;;;;9.82;4.53;;;;;;;3.04;100.00;99288.09;5038262;28;20033;-41
2023/01/16 01:28:09;;;;;;;18.73;4.85;;;;;;;3.05;100.00;99279.09;5032459;28;20383;-41
2023/01/16 01:30:34;;;;;;;13.43;4.90;;;;;;;3.01;100.00;99273.31;5044184;28;20508;-41
2023/01/16 01:32:59;;;;;;;21.27;4.57;;;;;;;3.02;100.00;99268.81;5046165;28;20457;-40
2023/01/16 01:35:25;;;;;;;18.27;4.88;;;;;;;3.03;100.00;99254.53;5042142;28;20535;-41
2023/01/16 01:37:50;;;;;;;15.45;4.72;;;;;;;3.03;100.00;99254.53;5048760;28;20036;-40
2023/01/16 01:40:16;;;;;;;18.17;5.28;;;;;;;3.02;100.00;99252.88;5047112;28;20033;-42
2023/01/16 01:42:51;;;;;;;25.25;5.80;;;;;;;3.02;100.00;99243.06;5038769;28;20060;-40
2023/01/16 01:45:25;;;;;;;18.80;4.78;;;;;;;3.04;100.00;99241.06;5036064;28;20121;-41
2023/01/16 01:47:54;;;;;;;19.90;5.18;;;;;;;3.10;100.00;99231.56;5043204;28;20094;-41
2023/01/16 01:50:27;;;;;;;24.92;5.28;;;;;;;3.10;100.00;99228.91;5032873;28;20034;-41
2023/01/16 01:52:52;;;;;;;16.80;4.70;;;;;;;3.19;100.00;99227.06;5055831;28;20029;-40
2023/01/16 01:55:19;;;;;;;22.65;5.13;;;;;;;3.19;100.00;99222.56;5036555;28;20207;-43
2023/01/16 01:57:55;;;;;;;19.92;5.45;;;;;;;3.18;100.00;99214.75;5043536;28;20061;-41
2023/01/16 02:00:22;;;;;;;19.33;5.40;;;;;;;3.26;100.00;99204.91;5047978;28;20029;-42
2023/01/16 02:02:53;;;;;;;15.75;4.93;;;;;;;3.27;100.00;99203.91;5028829;28;20030;-40
2023/01/16 02:05:24;;;;;;;16.95;5.55;;;;;;;3.26;100.00;99190.78;5030215;28;20116;-40
2023/01/16 02:07:51;;;;;;;16.23;5.40;;;;;;;3.25;100.00;99191.78;5042537;28;20029;-40
2023/01/16 02:10:38;;;;;;;16.13;5.88;;;;;;;3.22;100.00;99192.97;5029935;28;20393;-41
2023/01/16 02:13:04;;;;;;;20.65;6.85;;;;;;;3.25;100.00;99184.63;5045320;28;20116;-41
2023/01/16 02:15:30;;;;;;;26.42;7.45;;;;;;;3.29;100.00;99191.28;5042799;28;20159;-41
2023/01/16 02:20:48;;;;;;;17.85;6.03;;;;;;;3.32;100.00;99183.94;5039171;28;20550;-40
2023/01/16 02:23:32;;;;;;;15.20;5.90;;;;;;;3.33;100.00;99190.91;5030830;28;20484;-40
2023/01/16 02:26:31;;;;;;;17.77;6.50;;;;;;;3.33;100.00;99164.31;5040219;28;20040;-41
2023/01/16 02:29:02;;;;;;;11.63;5.88;;;;;;;3.32;100.00;99168.81;5031614;28;20040;-40
2023/01/16 02:31:52;;;;;;;19.08;6.15;;;;;;;3.29;100.00;99158.50;5029557;28;20415;-40
2023/01/16 02:34:26;;;;;;;13.80;5.57;;;;;;;3.23;100.00;99144.09;5030412;28;20028;-40
2023/01/16 02:36:54;;;;;;;13.10;4.93;;;;;;;3.18;100.00;99129.69;5044236;28;20040;-40
2023/01/16 02:39:51;;;;;;;11.07;4.70;;;;;;;3.18;100.00;99129.69;5030144;28;20041;-41
2023/01/16 02:42:25;;;;;;;10.90;4.35;;;;;;;3.15;100.00;99119.41;5034512;28;20045;-40
2023/01/16 02:45:05;;;;;;;10.73;3.97;;;;;;;3.17;100.00;99114.75;5030853;28;20075;-41
2023/01/16 02:47:40;;;;;;;12.25;4.53;;;;;;;3.15;100.00;99101.63;5037923;28;20033;-39
2023/01/16 02:50:30;;;;;;;11.73;3.65;;;;;;;3.17;100.00;99102.28;5037900;28;20047;-40
2023/01/16 02:53:10;;;;;;;10.48;3.47;;;;;;;3.15;100.00;99083.03;5038791;28;20025;-42
2023/01/16 02:55:57;;;;;;;9.55;3.13;;;;;;;3.16;100.00;99076.72;5041463;28;20056;-40
2023/01/16 02:58:24;;;;;;;8.57;3.08;;;;;;;3.16;100.00;99063.44;5041405;28;20214;-43
2023/01/16 03:00:55;;;;;;;13.52;3.40;;;;;;;3.13;100.00;99060.28;5040355;28;20159;-41
2023/01/16 03:03:54;;;;;;;16.17;3.70;;;;;;;3.15;100.00;99064.41;5036432;28;20033;-41
2023/01/16 03:06:19;;;;;;;9.35;3.20;;;;;;;3.13;100.00;99058.44;5030024;28;20056;-41
2023/01/16 03:09:14;;;;;;;11.65;2.88;;;;;;;3.12;100.00;99048.81;5029168;28;20057;-41
2023/01/16 03:12:09;;;;;;;13.65;3.03;;;;;;;3.13;100.00;99042.50;5031467;28;20029;-40
2023/01/16 03:14:39;;;;;;;6.25;2.53;;;;;;;3.13;100.00;99036.34;5035108;28;20037;-40
2023/01/16 03:17:31;;;;;;;10.38;3.33;;;;;;;3.07;100.00;99032.59;5048651;28;20017;-41
2023/01/16 03:20:04;;;;;;;11.13;3.03;;;;;;;3.13;100.00;99026.53;5038997;28;20029;-41
2023/01/16 03:22:43;;;;;;;8.57;3.03;;;;;;;3.16;100.00;99015.56;5039910;28;20033;-40
2023/01/16 03:25:41;;;;;;;8.98;2.63;;;;;;;3.15;100.00;99008.59;5032498;28;20373;-40
2023/01/16 03:28:22;;;;;;;9.85;2.60;;;;;;;3.12;100.00;98993.00;5029268;28;20041;-40
2023/01/16 03:30:54;;;;;;;10.90;3.35;;;;;;;3.11;100.00;98990.50;5036145;28;20071;-41
2023/01/16 03:33:22;;;;;;;7.00;2.05;;;;;;;3.15;100.00;98987.31;5048355;28;20101;-41
2023/01/16 03:36:04;;;;;;;5.85;2.13;;;;;;;3.16;100.00;98986.34;5033684;28;20085;-43
2023/01/16 03:38:31;;;;;;;18.70;2.55;;;;;;;3.22;100.00;98977.63;5028204;28;20053;-40
2023/01/16 03:41:00;;;;;;;10.63;1.65;;;;;;;3.21;100.00;98957.38;5030652;28;20029;-41
2023/01/16 03:43:35;;;;;;;12.88;3.15;;;;;;;3.19;100.00;98959.38;5035560;28;20025;-41
2023/01/16 03:46:04;;;;;;;9.18;1.75;;;;;;;3.19;100.00;98945.28;5030628;28;20087;-41
2023/01/16 03:48:56;;;;;;;11.15;2.67;;;;;;;3.17;100.00;98940.13;5034145;28;20527;-41
2023/01/16 03:51:24;;;;;;;13.55;2.50;;;;;;;3.17;100.00;98932.16;5036427;28;20041;-40
2023/01/16 03:54:10;;;;;;;11.80;2.95;;;;;;;3.13;100.00;98920.22;5032190;28;20112;-41
2023/01/16 03:56:59;;;;;;;9.75;3.33;;;;;;;3.13;100.00;98916.75;5025692;28;20388;-40
2023/01/16 03:59:24;;;;;;;7.47;2.85;;;;;;;3.09;100.00;98903.00;5035030;28;20054;-40
2023/01/16 04:02:05;;;;;;;13.35;3.72;;;;;;;3.11;100.00;98900.16;5037949;28;20491;-40
2023/01/16 04:04:45;;;;;;;15.50;3.42;;;;;;;3.08;100.00;98890.69;5033150;28;20038;-40
2023/01/16 04:07:37;;;;;;;9.35;3.35;;;;;;;3.09;100.00;98876.44;5039419;28;20029;-40
2023/01/16 04:10:05;;;;;;;9.25;3.60;;;;;;;3.03;100.00;98866.53;5037370;28;20523;-41
2023/01/16 04:12:33;;;;;;;;;;;;;;;3.00;100.00;98866.88;5037291;28;20024;-40
2023/01/16 04:15:01;;;;;;;7.35;2.97;;;;;;;3.00;100.00;98858.91;5030529;28;19913;-41
2023/01/16 04:17:26;;;;;;;;;;;;;;;2.92;100.00;98849.19;5036177;28;20048;-41
2023/01/16 04:19:52;;;;;;;8.45;3.10;;;;;;;2.94;100.00;98849.00;5032112;28;19913;-41
2023/01/16 04:22:22;;;;;;;9.18;3.00;;;;;;;2.93;100.00;98839.41;5030689;28;20447;-40
2023/01/16 04:24:49;;;;;;;7.80;2.63;;;;;;;2.93;100.00;98831.44;5032145;28;20053;-40
2023/01/16 04:27:14;;;;;;;6.05;2.28;;;;;;;2.93;100.00;98826.09;5030603;28;20105;-40
2023/01/16 04:29:40;;;;;;;8.57;2.10;;;;;;;2.95;100.00;98805.47;5034140;28;20753;-43
2023/01/16 04:32:05;;;;;;;9.10;2.47;;;;;;;3.01;100.00;98802.09;5041711;28;20071;-40
2023/01/16 04:34:30;;;;;;;14.45;3.13;;;;;;;2.97;100.00;98792.84;5031282;28;20144;-40
2023/01/16 04:36:56;;;;;;;8.25;2.78;;;;;;;3.00;100.00;98787.16;5031830;28;20116;-40
2023/01/16 04:39:21;;;;;;;6.55;2.00;;;;;;;3.03;100.00;98776.19;5031602;28;20065;-40
2023/01/16 04:41:50;;;;;;;15.30;1.90;;;;;;;3.05;100.00;98768.81;5038756;28;20049;-41
2023/01/16 04:44:16;;;;;;;7.18;2.10;;;;;;;3.09;100.00;98754.16;5045515;28;20431;-41
2023/01/16 04:46:41;;;;;;;10.55;1.70;;;;;;;3.09;100.00;98748.84;5033630;28;20544;-41
2023/01/16 04:49:07;;;;;;;6.88;1.80;;;;;;;3.12;100.00;98740.50;5032121;28;20125;-41
2023/01/16 04:51:32;;;;;;;9.75;1.90;;;;;;;3.16;100.00;98728.50;5031580;28;20311;-41
2023/01/16 04:53:57;;;;;;;12.20;3.05;;;;;;;3.18;100.00;98710.50;5034931;28;20427;-40
2023/01/16 04:56:23;;;;;;;13.13;2.13;;;;;;;3.23;100.00;98710.78;5031149;28;20025;-40
2023/01/16 04:58:50;;;;;;;14.82;2.72;;;;;;;3.23;100.00;98697.50;5029858;28;20064;-40
2023/01/16 05:01:17;;;;;;;16.02;2.50;;;;;;;3.21;100.00;98688.91;5045761;28;20105;-42
2023/01/16 05:03:42;;;;;;;12.55;2.45;;;;;;;3.25;100.00;98679.53;5035681;28;20087;-41
2023/01/16 05:06:07;;;;;;;6.93;1.80;;;;;;;3.33;100.00;98677.78;5050017;28;20448;-40
2023/01/16 05:08:33;;;;;;;8.82;2.03;;;;;;;3.38;100.00;98668.22;5038776;28;20477;-41
2023/01/16 05:11:00;;;;;;;8.23;1.98;;;;;;;3.35;100.00;98663.28;5039171;28;20120;-41
2023/01/16 05:13:27;;;;;;;8.20;1.90;;;;;;;3.32;100.00;98638.88;5035764;28;20027;-41
2023/01/16 05:15:52;;;;;;;11.23;2.35;;;;;;;3.40;100.00;98633.47;5038049;28;20052;-41
2023/01/16 05:18:17;;;;;;;8.98;2.00;;;;;;;3.36;100.00;98616.22;5037926;28;20105;-41
2023/01/16 05:20:43;;;;;;;10.55;2.25;;;;;;;3.37;100.00;98612.56;5045829;28;20032;-40
2023/01/16 05:23:10;;;;;;;8.77;1.90;;;;;;;3.41;100.00;98597.88;5032886;28;20099;-40
2023/01/16 05:25:37;;;;;;;9.27;1.83;;;;;;;3.39;100.00;98599.91;5030862;28;20480;-40
2023/01/16 05:28:02;;;;;;;10.85;1.95;;;;;;;3.35;100.00;98598.66;5031813;28;20056;-40
2023/01/16 05:30:28;;;;;;;6.43;1.52;;;;;;;3.34;100.00;98584.50;5044419;28;20052;-42
2023/01/16 05:32:53;;;;;;;8.00;1.55;;;;;;;3.34;100.00;98576.53;5049354;28;20075;-41
2023/01/16 05:35:19;;;;;;;5.63;1.70;;;;;;;3.37;100.00;98570.00;5031144;28;20042;-41
2023/01/16 05:37:45;;;;;;;10.75;2.28;;;;;;;3.41;100.00;98563.31;5034043;28;20083;-41
2023/01/16 05:40:11;;;;;;;11.98;1.67;;;;;;;3.33;100.00;98558.94;5046843;28;20037;-41
2023/01/16 05:42:36;;;;;;;7.47;2.15;;;;;;;3.25;100.00;98551.91;5046915;28;20033;-42
2023/01/16 05:45:02;;;;;;;14.85;2.20;;;;;;;3.26;100.00;98552.75;5031630;28;20040;-40
2023/01/16 05:47:28;;;;;;;11.45;1.73;;;;;;;3.22;100.00;98552.31;5031996;28;20029;-40
2023/01/16 05:49:53;;;;;;;12.73;2.70;;;;;;;3.21;100.00;98545.38;5037865;28;20060;-41
2023/01/16 05:52:19;;;;;;;7.82;1.60;;;;;;;3.22;100.00;98531.03;5038364;28;20025;-40
2023/01/16 05:54:44;;;;;;;15.55;2.28;;;;;;;3.27;100.00;98531.28;5031743;28;20037;-42
2023/01/16 05:57:09;;;;;;;7.85;2.20;;;;;;;3.11;100.00;98534.22;5033281;28;20408;-44
2023/01/16 05:59:35;;;;;;;5.85;1.73;;;;;;;3.15;100.00;98527.50;5043399;28;20420;-45
2023/01/16 06:02:00;;;;;;;5.25;1.70;;;;;;;3.09;100.00;98517.63;5046138;28;20029;-41
2023/01/16 06:04:26;;;;;;;11.90;3.17;;;;;;;3.11;100.00;98512.13;5033912;28;20036;-41
2023/01/16 06:06:51;;;;;;;2.72;1.67;;;;;;;3.14;100.00;98506.44;5033094;28;20021;-41
2023/01/16 06:09:16;;;;;;;15.57;2.72;;;;;;;3.09;100.00;98499.03;5030478;28;20029;-44
2023/01/16 06:11:42;;;;;;;13.07;2.33;;;;;;;3.01;100.00;98499.19;5032823;28;20030;-44
2023/01/16 06:14:07;;;;;;;20.13;2.50;;;;;;;2.94;100.00;98495.63;5040351;28;20025;-44
2023/01/16 06:16:33;;;;;;;12.75;1.90;;;;;;;2.91;100.00;98488.84;5055072;28;20364;-44
2023/01/16 06:18:59;;;;;;;11.85;2.33;;;;;;;2.96;100.00;98482.97;5039125;28;20088;-43
2023/01/16 06:21:25;;;;;;;9.05;2.45;;;;;;;2.95;100.00;98489.28;5029641;28;20508;-45
2023/01/16 06:23:50;;;;;;;9.30;2.20;;;;;;;2.92;100.00;98482.53;5032474;28;20203;-46
2023/01/16 06:26:16;;;;;;;8.60;2.30;;;;;;;2.92;100.00;98468.41;5019389;28;20033;-45
2023/01/16 06:28:41;;;;;;;14.80;2.38;;;;;;;3.01;100.00;98465.44;5029252;28;20542;-46
2023/01/16 06:31:07;;;;;;;9.55;2.50;;;;;;;2.97;100.00;98460.69;5036486;28;20384;-44
2023/01/16 06:33:33;;;;;;;7.55;2.20;;;;;;;2.98;100.00;98451.72;5039627;28;20602;-45
2023/01/16 06:35:58;;;;;;;15.02;2.58;;;;;;;2.95;100.00;98434.34;5038435;28;20056;-46
2023/01/16 06:38:24;;;;;;;11.60;2.10;;;;;;;2.95;100.00;98433.50;5036865;28;20051;-47
2023/01/16 06:40:49;;;;;;;11.70;2.10;;;;;;;2.91;100.00;98426.94;5044035;28;20033;-44
2023/01/16 06:43:17;;;;;;;10.10;2.25;;;;;;;2.95;100.00;98417.56;5043206;28;20132;-47
2023/01/16 06:45:44;;;;;;;12.02;2.67;;;;;;;2.98;100.00;98409.22;5040780;28;20033;-46
2023/01/16 06:48:10;;;;;;;12.32;2.00;;;;;;;2.95;100.00;98401.63;5040852;28;20025;-46
2023/01/16 06:50:36;;;;;;;8.35;2.20;;;;;;;2.95;100.00;98401.63;5036751;28;20040;-46
2023/01/16 06:53:01;;;;;;;11.65;2.30;;;;;;;3.00;100.00;98399.19;5043738;28;20056;-46
2023/01/16 06:55:26;;;;;;;11.32;2.20;;;;;;;2.98;100.00;98385.31;5044550;28;20036;-44
2023/01/16 06:57:52;;;;;;;6.07;2.42;;;;;;;3.00;100.00;98381.44;5042660;28;20041;-45
2023/01/16 07:00:17;;;;;;;12.43;2.60;;;;;;;2.98;100.00;98374.69;5035053;28;20028;-45
2023/01/16 07:02:42;;;;;;;12.60;2.53;;;;;;;3.03;100.00;98362.44;5041873;28;20033;-45
2023/01/16 07:05:09;;;;;;;5.72;2.28;;;;;;;3.04;100.00;98352.63;5039444;28;20032;-46
2023/01/16 07:07:35;;;;;;;15.15;2.88;;;;;;;2.98;100.00;98358.75;5042263;28;20033;-47
2023/01/16 07:10:01;;;;;;;8.13;2.22;;;;;;;3.00;100.00;98340.75;5042324;28;20037;-46
2023/01/16 07:12:26;;;;;;;8.07;2.10;;;;;;;3.00;100.00;98335.44;5043258;28;20036;-46
2023/01/16 07:23:19;;;;;;;13.00;2.78;;;;;;;3.09;100.00;98294.41;5044993;28;20072;-46
2023/01/16 07:25:45;;;;;;;8.05;2.47;;;;;;;3.05;100.00;98290.50;5047426;28;20116;-46
2023/01/16 07:28:11;;;;;;;11.48;2.33;;;;;;;3.08;100.00;98284.78;5040990;28;20116;-45
2023/01/16 07:30:36;;;;;;;11.20;2.15;;;;;;;3.11;100.00;98279.09;5042924;28;20021;-46
2023/01/16 07:33:02;;;;;;;12.15;1.85;;;;;;;3.11;100.00;98262.31;5045367;28;20055;-45
2023/01/16 07:35:27;;;;;;;14.07;1.73;;;;;;;3.15;100.00;98256.41;5028720;28;20081;-45
2023/01/16 07:37:56;;;;;;;16.67;2.30;;;;;;;3.20;100.00;98246.00;5046799;28;20064;-45
2023/01/16 07:40:22;;;;;;;12.25;1.95;;;;;;;3.17;100.00;98229.66;5047530;28;20431;-45
2023/01/16 07:42:49;;;;;;;13.60;2.08;;;;;;;3.24;100.00;98225.19;5047404;28;20034;-45
2023/01/16 07:45:15;;;;;;;16.67;2.80;;;;;;;3.21;100.00;98213.13;5046458;28;20033;-44
2023/01/16 07:47:40;;;;;;;11.27;2.13;;;;;;;3.26;100.00;98210.66;5046119;28;20048;-46
2023/01/16 07:50:06;;;;;;;12.30;3.03;;;;;;;3.28;100.00;98197.16;5044660;28;20135;-46
2023/01/16 07:52:31;;;;;;;9.43;1.75;;;;;;;3.29;100.00;98186.34;5042386;28;20059;-47
2023/01/16 07:54:56;;;;;;;11.50;2.25;;;;;;;3.29;100.00;98177.53;5047358;28;20068;-45
2023/01/16 07:57:22;;;;;;;10.15;2.30;;;;;;;3.25;100.00;98179.78;5045966;28;20032;-46
2023/01/16 07:59:47;;;;;;;14.77;2.67;;;;;;;3.21;100.00;98167.09;5047152;28;20036;-44
2023/01/16 08:02:12;;;;;;;8.13;2.00;;;;;;;3.27;100.00;98175.09;5046410;28;20460;-45
2023/01/16 08:04:38;;;;;;;11.90;2.08;;;;;;;3.23;100.00;98179.16;5046012;28;20150;-40
2023/01/16 08:07:03;;;;;;;9.20;1.75;;;;;;;3.22;100.00;98176.72;5048041;28;20116;-43
2023/01/16 08:09:28;;;;;;;8.30;2.40;;;;;;;3.23;100.00;98173.03;5047219;28;20041;-44
2023/01/16 08:11:54;;;;;;;13.15;2.67;;;;;;;3.20;100.00;98168.94;5044711;28;20056;-43
2023/01/16 08:14:19;;;;;;;15.00;2.95;;;;;;;3.17;100.00;98150.72;5047639;28;20654;-43
2023/01/16 08:16:44;;;;;;;6.15;2.30;;;;;;;3.21;100.00;98148.47;5044676;28;20036;-43
2023/01/16 08:19:10;;;;;;;7.97;2.38;;;;;;;3.19;100.00;98132.75;5047600;28;20029;-41
2023/01/16 08:21:35;;;;;;;10.82;2.72;;;;;;;3.23;100.00;98147.25;5044085;28;20222;-44
2023/01/16 08:24:01;;;;;;;14.45;2.47;;;;;;;3.19;100.00;98140.72;5047309;28;20507;-43
2023/01/16 08:26:26;;;;;;;6.13;2.15;;;;;;;3.24;100.00;98138.28;5047795;28;20025;-42
2023/01/16 08:28:52;;;;;;;7.82;1.98;;;;;;;3.20;100.00;98134.38;5044143;28;20527;-43
2023/01/16 08:31:18;;;;;;;13.50;2.60;;;;;;;3.22;100.00;98137.66;5046594;28;20113;-42
2023/01/16 08:33:45;;;;;;;12.50;2.70;;;;;;;3.21;100.00;98125.41;5045418;28;20146;-42
2023/01/16 08:36:11;;;;;;;12.45;2.38;;;;;;;3.24;100.00;98130.31;5046527;28;20040;-41
2023/01/16 08:38:37;;;;;;;9.60;2.58;;;;;;;3.21;100.00;98114.78;5046282;28;20342;-40
2023/01/16 08:41:02;;;;;;;7.75;2.70;;;;;;;3.18;100.00;98119.66;5046484;28;20473;-43
2023/01/16 08:51:53;;;;;;;10.77;2.83;;;;;;;3.18;100.00;98083.25;5046670;28;20094;-44
2023/01/16 08:54:19;;;;;;;14.93;4.63;;;;;;;3.18;100.00;98085.91;5049375;28;20111;-42
2023/01/16 08:56:44;;;;;;;10.68;3.63;;;;;;;3.20;100.00;98086.53;5050866;28;20087;-43
2023/01/16 08:59:10;;;;;;;8.25;2.72;;;;;;;3.25;100.00;98075.31;5038049;28;20029;-41
2023/01/16 09:01:37;;;;;;;15.45;2.97;;;;;;;3.24;100.00;98060.41;5048141;28;20039;-40
2023/01/16 09:04:02;;;;;;;8.75;2.88;;;;;;;3.24;100.00;98071.03;5046460;28;20032;-41
2023/01/16 09:06:27;;;;;;;7.35;2.75;;;;;;;3.23;100.00;98058.75;5041007;28;20029;-44
2023/01/16 09:08:52;;;;;;;7.18;2.50;;;;;;;3.25;100.00;98062.84;5041163;28;20033;-41
2023/01/16 09:14:02;;;;;;;7.45;3.80;;;;;;;3.29;100.00;98053.44;5039828;28;20099;-41
2023/01/16 09:16:27;;;;;;;12.00;2.55;;;;;;;3.34;100.00;98049.34;5033974;28;20469;-41
2023/01/16 09:18:53;;;;;;;6.70;2.60;;;;;;;3.34;100.00;98044.03;5031249;28;20429;-44
2023/01/16 09:21:19;;;;;;;7.55;2.60;;;;;;;3.31;100.00;98034.63;5036536;28;20021;-42
2023/01/16 09:23:45;;;;;;;7.63;2.30;;;;;;;3.32;100.00;98036.28;5042536;28;20516;-42
2023/01/16 09:26:10;;;;;;;7.03;3.05;;;;;;;3.29;100.00;98026.03;5033133;28;20361;-42
2023/01/16 09:28:36;;;;;;;6.78;2.42;;;;;;;3.33;100.00;98021.13;5038341;28;20076;-44
2023/01/16 09:31:01;;;;;;;13.07;3.22;;;;;;;3.36;100.00;98026.03;5034933;28;20030;-44
2023/01/16 09:33:26;;;;;;;6.95;2.40;;;;;;;3.34;100.00;98012.13;5050029;28;20060;-42
2023/01/16 09:35:52;;;;;;;5.13;2.67;;;;;;;3.34;100.00;98017.44;5045582;28;20063;-43
2023/01/16 09:38:17;;;;;;;8.07;2.28;;;;;;;3.37;100.00;98011.72;5032641;28;20101;-43
2023/01/16 09:40:49;;;;;;;4.28;2.40;;;;;;;3.38;100.00;98005.38;5031215;28;20140;-42
2023/01/16 09:43:40;;;;;;;6.70;2.55;;;;;;;3.36;100.00;98000.25;5030941;28;20373;-41
2023/01/16 09:46:11;;;;;;;6.05;2.78;;;;;;;3.36;100.00;98000.25;5030373;28;20025;-43
2023/01/16 09:48:45;;;;;;;8.93;2.78;;;;;;;3.40;100.00;98006.81;5032361;28;20029;-46
2023/01/16 09:51:14;;;;;;;6.82;2.88;;;;;;;3.42;100.00;97987.97;5030783;28;20031;-44
2023/01/16 09:59:48;;;;;;;5.47;2.50;;;;;;;3.42;100.00;97991.47;5020963;28;19905;-43
2023/01/16 10:02:22;;;;;;;6.60;2.70;;;;;;;3.40;100.00;97974.91;5029381;28;20094;-44
2023/01/16 10:04:48;;;;;;;7.38;3.20;;;;;;;3.44;100.00;97970.81;5030676;28;20029;-46
2023/01/16 10:07:26;;;;;;;3.63;2.65;;;;;;;3.48;100.00;97966.72;5030566;28;20033;-44
2023/01/16 10:10:01;;;;;;;7.93;3.05;;;;;;;3.45;100.00;97967.13;5029903;28;20068;-42
2023/01/16 10:12:32;;;;;;;6.80;3.10;;;;;;;3.46;100.00;97966.09;5030976;28;20473;-44
2023/01/16 10:15:13;;;;;;;6.50;2.78;;;;;;;3.53;100.00;97958.13;5031111;28;20080;-42
2023/01/16 10:17:50;;;;;;;8.70;3.03;;;;;;;3.52;100.00;97959.13;5031081;28;20461;-48
2023/01/16 10:20:34;;;;;;;12.50;3.30;;;;;;;3.52;100.00;97949.31;5030737;28;20135;-44
2023/01/16 10:23:15;;;;;;;4.80;3.33;;;;;;;3.53;100.00;97947.50;5031081;28;20349;-45
2023/01/16 10:25:58;;;;;;;3.15;2.85;;;;;;;3.54;100.00;97940.31;5030826;28;20075;-44
2023/01/16 10:28:42;;;;;;;8.30;3.30;;;;;;;3.56;100.00;97931.13;5030926;28;20060;-43
2023/01/16 10:31:23;;;;;;;9.70;3.50;;;;;;;3.54;100.00;97945.66;5029556;28;20047;-43
2023/01/16 10:34:01;;;;;;;9.77;3.50;;;;;;;3.54;100.00;97924.38;5030032;28;20120;-42
2023/01/16 10:36:30;;;;;;;6.75;3.95;;;;;;;3.57;100.00;97924.75;5029742;28;20041;-42
2023/01/16 10:38:57;;;;;;;4.32;3.05;;;;;;;3.59;100.00;97921.91;5012929;28;20030;-44
2023/01/16 10:49:55;;;;;;;5.63;3.05;;;;;;;3.61;100.00;97915.34;5030205;28;20080;-43
2023/01/16 10:52:21;;;;;;;6.60;3.00;;;;;;;3.59;100.00;97906.75;5029424;28;20528;-40
2023/01/16 10:54:47;;;;;;;7.10;3.25;;;;;;;3.58;100.00;97905.16;5029366;28;20025;-40
2023/01/16 10:57:17;;;;;;;7.70;3.08;;;;;;;3.60;100.00;97899.59;5029140;28;20465;-40
2023/01/16 10:59:44;;;;;;;6.05;3.65;;;;;;;3.68;100.00;97907.34;5028298;28;20040;-40
2023/01/16 11:02:19;;;;;;;9.82;3.90;;;;;;;3.73;100.00;97902.22;5029807;28;20025;-38
2023/01/16 11:04:44;;;;;;;5.22;3.10;;;;;;;3.74;100.00;97896.69;5031124;28;20075;-40
2023/01/16 11:07:16;;;;;;;8.60;3.35;;;;;;;3.76;100.00;97893.81;5030029;28;20029;-39
2023/01/16 11:09:43;;;;;;;6.32;3.42;;;;;;;3.78;100.00;97885.63;5030734;28;20067;-40
2023/01/16 11:20:38;;;;;;;5.45;3.25;;;;;;;3.91;100.00;97869.59;5029963;28;20031;-39
2023/01/16 11:23:16;;;;;;;4.82;2.95;;;;;;;3.93;100.00;97870.22;5030963;28;20036;-38
2023/01/16 11:25:44;;;;;;;5.55;3.15;;;;;;;3.93;100.00;97862.22;5030924;28;20021;-39
2023/01/16 11:28:32;;;;;;;5.13;2.92;;;;;;;3.94;100.00;97863.84;5031135;28;20052;-38
2023/01/16 11:31:01;;;;;;;7.38;2.97;;;;;;;4.01;100.00;97850.53;5030285;28;20060;-38
2023/01/16 11:33:33;;;;;;;8.80;3.15;;;;;;;4.02;100.00;97854.81;5029664;28;20029;-39
2023/01/16 11:36:01;;;;;;;8.75;3.33;;;;;;;4.05;100.00;97847.22;5030150;28;20077;-38
2023/01/16 11:38:29;;;;;;;4.43;3.10;;;;;;;4.08;100.00;97844.16;5031102;28;20108;-39
2023/01/16 11:40:56;;;;;;;5.95;3.10;;;;;;;4.09;100.00;97829.78;5032220;28;20072;-38
2023/01/16 11:46:40;;;;;;;8.57;3.10;;;;;;;4.09;100.00;97824.47;5032720;28;20076;-37
2023/01/16 11:49:17;;;;;;;4.55;2.90;;;;;;;4.16;100.00;97817.28;5031851;28;20032;-38
2023/01/16 11:51:42;;;;;;;4.20;2.65;;;;;;;4.22;100.00;97817.44;5032737;28;20421;-38
2023/01/16 11:54:26;;;;;;;6.30;3.00;;;;;;;4.26;100.00;97810.63;5032929;28;20112;-39
2023/01/16 11:57:09;;;;;;;3.63;2.97;;;;;;;4.24;100.00;97804.72;5030240;28;20030;-39
2023/01/16 11:59:54;;;;;;;5.78;2.80;;;;;;;4.31;100.00;97802.81;5028649;28;20026;-38
2023/01/16 12:02:39;;;;;;;7.93;2.65;;;;;;;4.33;100.00;97795.44;5012819;28;20032;-38
2023/01/16 12:08:35;;;;;;;4.22;2.22;;;;;;;4.37;100.00;97788.63;5030809;28;20060;-38
2023/01/16 12:11:06;;;;;;;3.75;2.47;;;;;;;4.42;100.00;97786.13;5031910;28;20053;-38
2023/01/16 12:16:37;;;;;;;4.80;2.25;;;;;;;4.48;100.00;97779.97;5032714;28;20641;-39
2023/01/16 12:19:30;;;;;;;2.65;2.42;;;;;;;4.56;100.00;97771.69;5034494;28;20029;-38
2023/01/16 12:22:01;;;;;;;1.90;1.80;;;;;;;4.62;100.00;97762.81;5033715;28;20420;-40
2023/01/16 12:24:38;;;;;;;6.07;2.10;;;;;;;4.60;100.00;97758.75;5033748;28;20428;-40
2023/01/16 12:27:14;;;;;;;2.15;1.95;;;;;;;4.65;100.00;97750.09;5033808;28;20029;-40
2023/01/16 12:30:07;;;;;;;3.05;2.10;;;;;;;4.68;100.00;97731.81;5033314;28;20021;-37
2023/01/16 12:32:41;;;;;;;2.58;2.08;;;;;;;4.72;100.00;97737.53;5031318;28;20071;-39
2023/01/16 12:35:28;;;;;;;5.15;2.10;;;;;;;4.73;100.00;97731.97;4994068;28;1077949;-39